Belmore, Ohio
Current Conditions -  °F | °C
As of 3:53 AM on Monday 24 Nov 2014 (Local Time) from KFDY Reporting Station
Overcast Overcast  
Wind Chill: 59°   Ceiling: 2000
Heat Index: 59°   Visibility: 10mi
Dew Point: 54°   Wind: 24mph
Humidity: 83%   Direction: 210°SSW
Pressure: 29.19"   Gusts: 32mph
Location:  41.15°N, 83.94°W
Report Text: KFDY 240853Z AUTO 21021G28KT 10SM OVC020 15/12 A2919 RMK AO2 PK WND 20034/0829 RAE01 SLP878 P0000 60004 T01500122 53014
Loading
Personal Weather Stations






























Interactive Weather Map New forecast layout! Learn more

10-Day Weather Forecast

Advertisements
Track Severe Weather on mobile